Time;durP1;ratioP1;P1;durP2;ratioP2;P2;SDS_P1;SDS_P2;PMS_P1;PMS_P2;Temp;Humidity;BMP_temperature;BMP_pressure;BME280_temperature;BME280_humidity;BME280_pressure;Samples;Min_cycle;Max_cycle;Signal;HPM_P1;HPM_P2
2023/01/05 00:04:20;;;;;;;30.33;7.30;;;;;;;9.64;100.00;101618.44;10374372;28;20469;-64
2023/01/05 00:09:20;;;;;;;24.48;8.05;;;;;;;9.57;100.00;101622.84;10374447;28;20037;-64
2023/01/05 00:25:05;;;;;;;32.92;9.52;;;;;;;9.48;100.00;101617.47;10373845;28;20064;-64
2023/01/05 00:30:06;;;;;;;35.42;10.82;;;;;;;9.47;100.00;101607.66;10373472;28;20026;-63
2023/01/05 00:35:06;;;;;;;34.40;8.43;;;;;;;9.41;100.00;101602.09;10373780;28;20367;-64
2023/01/05 00:40:12;;;;;;;37.60;8.90;;;;;;;9.36;100.00;101618.84;10373027;28;20061;-63
2023/01/05 00:45:14;;;;;;;29.92;8.10;;;;;;;9.34;100.00;101618.16;10374041;28;20455;-63
2023/01/05 00:50:15;;;;;;;37.35;10.00;;;;;;;9.29;100.00;101597.06;10361129;28;20034;-64
2023/01/05 00:55:15;;;;;;;38.33;8.00;;;;;;;9.33;100.00;101613.78;10379089;28;20128;-64
2023/01/05 01:00:17;;;;;;;25.02;8.50;;;;;;;9.37;100.00;101633.19;10363715;28;20502;-64
2023/01/05 01:05:18;;;;;;;34.38;9.38;;;;;;;9.34;100.00;101626.28;10383118;28;20060;-65
2023/01/05 01:10:18;;;;;;;25.23;7.43;;;;;;;9.36;100.00;101631.53;10385200;28;20076;-64
2023/01/05 01:15:19;;;;;;;34.72;10.63;;;;;;;9.38;100.00;101640.28;10385776;28;20045;-64
2023/01/05 01:20:19;;;;;;;36.40;7.45;;;;;;;9.34;100.00;101650.59;10379947;28;20052;-64
2023/01/05 01:25:19;;;;;;;29.33;9.05;;;;;;;9.30;100.00;101660.06;10379128;28;20061;-64
2023/01/05 01:30:20;;;;;;;47.15;10.32;;;;;;;9.36;100.00;101669.38;10380652;28;20034;-63
2023/01/05 01:35:20;;;;;;;32.05;7.60;;;;;;;9.36;100.00;101681.00;10380449;28;20107;-63
2023/01/05 01:40:21;;;;;;;45.90;6.63;;;;;;;9.33;100.00;101681.34;10377997;28;20038;-64
2023/01/05 01:45:22;;;;;;;41.28;8.48;;;;;;;9.37;100.00;101680.00;10378856;28;20570;-63
2023/01/05 01:50:42;;;;;;;32.95;7.28;;;;;;;9.41;100.00;101686.75;10379068;28;20057;-64
2023/01/05 01:55:43;;;;;;;13.73;6.68;;;;;;;9.40;100.00;101679.66;10377985;28;20037;-63
2023/01/05 02:00:43;;;;;;;28.02;8.00;;;;;;;9.44;100.00;101691.81;10377494;28;20030;-63
2023/01/05 02:05:44;;;;;;;35.58;7.10;;;;;;;9.49;100.00;101694.84;10378413;28;20033;-64
2023/01/05 02:10:53;;;;;;;37.42;6.90;;;;;;;9.50;100.00;101703.81;10375869;28;20076;-63
2023/01/05 02:16:18;;;;;;;27.55;7.10;;;;;;;9.51;100.00;101703.66;10376557;28;20040;-64
2023/01/05 02:21:43;;;;;;;16.67;5.75;;;;;;;9.55;100.00;101715.78;10393244;28;20334;-64
2023/01/05 02:27:09;;;;;;;29.70;7.00;;;;;;;9.59;100.00;101710.03;10377407;28;20076;-63
2023/01/05 02:32:15;;;;;;;31.50;6.57;;;;;;;9.69;100.00;101711.53;10376032;28;20144;-64
2023/01/05 02:37:31;;;;;;;28.13;7.83;;;;;;;9.89;100.00;101722.84;10376326;28;20044;-64
2023/01/05 02:42:31;;;;;;;29.13;8.77;;;;;;;10.01;100.00;101720.59;10360602;28;20054;-64
2023/01/05 02:47:35;;;;;;;19.05;6.38;;;;;;;10.13;100.00;101721.06;10358989;28;20479;-64
2023/01/05 02:52:56;;;;;;;20.00;6.07;;;;;;;10.23;100.00;101711.72;10360044;28;20060;-64
2023/01/05 02:58:06;;;;;;;27.80;7.32;;;;;;;10.27;100.00;101703.28;10377520;28;20034;-62
2023/01/05 03:03:17;;;;;;;27.83;8.75;;;;;;;10.30;100.00;101717.31;10359549;28;20041;-66
2023/01/05 03:08:23;;;;;;;33.63;8.75;;;;;;;10.26;100.00;101694.31;10375300;28;20030;-64
2023/01/05 03:13:42;;;;;;;44.95;8.07;;;;;;;10.28;100.00;101691.47;10360403;28;20370;-64
2023/01/05 03:40:20;;;;;;;21.55;8.13;;;;;;;10.18;100.00;101705.16;10374487;28;20152;-64
2023/01/05 03:45:22;;;;;;;32.13;6.57;;;;;;;10.17;100.00;101722.41;10363833;28;20026;-64
2023/01/05 03:50:22;;;;;;;28.13;7.00;;;;;;;10.17;100.00;101725.94;10363073;28;20030;-64
2023/01/05 03:55:22;;;;;;;39.53;7.65;;;;;;;10.13;100.00;101737.31;10373055;28;20046;-63
2023/01/05 04:00:24;;;;;;;18.65;6.75;;;;;;;10.12;100.00;101727.53;10376381;28;20029;-64
2023/01/05 04:05:24;;;;;;;24.15;7.50;;;;;;;10.12;100.00;101735.63;10380350;28;20104;-64
2023/01/05 04:10:25;;;;;;;26.02;7.88;;;;;;;10.09;100.00;101720.59;10375523;28;20033;-64
2023/01/05 04:15:25;;;;;;;29.63;7.35;;;;;;;10.08;100.00;101720.75;10374390;28;20045;-63
2023/01/05 04:20:25;;;;;;;33.03;8.70;;;;;;;10.04;100.00;101722.13;10375477;28;20572;-63
2023/01/05 04:25:26;;;;;;;20.65;6.70;;;;;;;10.02;100.00;101733.13;10379895;28;20053;-63
2023/01/05 04:30:26;;;;;;;17.52;7.30;;;;;;;10.02;100.00;101725.00;10381930;28;20489;-62
2023/01/05 04:35:27;;;;;;;36.17;8.20;;;;;;;10.01;100.00;101740.38;10380449;28;20041;-63
2023/01/05 04:40:27;;;;;;;29.77;7.47;;;;;;;10.00;100.00;101743.28;10380900;28;20042;-64
2023/01/05 04:45:27;;;;;;;31.85;9.77;;;;;;;10.05;100.00;101740.91;10381215;28;20053;-64
2023/01/05 04:50:28;;;;;;;29.40;7.32;;;;;;;10.00;100.00;101746.81;10379995;28;20470;-63
2023/01/05 04:55:28;;;;;;;40.85;9.90;;;;;;;10.00;100.00;101754.94;10382061;28;20099;-64
2023/01/05 05:00:32;;;;;;;33.90;6.80;;;;;;;9.93;100.00;101750.41;10380198;28;20033;-63
2023/01/05 05:05:32;;;;;;;19.48;7.20;;;;;;;9.94;100.00;101771.84;10381041;28;20034;-64
2023/01/05 05:10:32;;;;;;;53.70;8.68;;;;;;;9.94;100.00;101761.03;10379329;28;20124;-63
2023/01/05 05:15:33;;;;;;;19.42;9.20;;;;;;;10.00;100.00;101771.16;10378905;28;20137;-63
2023/01/05 05:20:33;;;;;;;29.38;11.13;;;;;;;10.01;100.00;101777.41;10380622;28;20469;-64
2023/01/05 05:25:34;;;;;;;53.28;11.55;;;;;;;10.02;100.00;101785.38;10362120;28;20034;-63
2023/01/05 05:30:35;;;;;;;38.97;9.20;;;;;;;10.04;100.00;101796.03;10379291;28;20022;-64
2023/01/05 05:35:36;;;;;;;30.70;8.95;;;;;;;10.04;100.00;101789.78;10360032;28;20056;-64
2023/01/05 05:40:36;;;;;;;22.52;7.43;;;;;;;10.07;100.00;101802.97;10379119;28;20049;-64
2023/01/05 05:45:36;;;;;;;35.72;8.15;;;;;;;10.11;100.00;101805.13;10383820;28;20042;-64
2023/01/05 05:50:37;;;;;;;37.88;10.07;;;;;;;10.11;100.00;101815.97;10378231;28;20120;-65
2023/01/05 05:55:37;;;;;;;34.65;9.40;;;;;;;10.13;100.00;101832.03;10378996;28;20040;-64
2023/01/05 06:00:38;;;;;;;38.15;10.57;;;;;;;10.07;100.00;101802.97;10379254;28;20080;-63
2023/01/05 06:05:38;;;;;;;40.85;9.60;;;;;;;10.06;100.00;101818.34;10378220;28;20153;-64
2023/01/05 06:10:38;;;;;;;25.35;8.25;;;;;;;10.08;100.00;101823.59;10377349;28;20036;-63
2023/01/05 06:15:39;;;;;;;30.13;8.98;;;;;;;9.98;100.00;101824.59;10377981;28;20493;-63
2023/01/05 06:20:39;;;;;;;31.25;7.60;;;;;;;9.98;100.00;101827.31;10376494;28;20054;-63
2023/01/05 06:25:40;;;;;;;32.13;9.85;;;;;;;9.96;100.00;101845.59;10376660;28;20042;-63
2023/01/05 06:30:40;;;;;;;35.28;8.00;;;;;;;9.96;100.00;101848.31;10376400;28;20041;-64
2023/01/05 06:35:41;;;;;;;24.83;7.53;;;;;;;9.81;100.00;101852.69;10376999;28;20065;-63
2023/01/05 06:40:43;;;;;;;27.00;7.47;;;;;;;9.81;100.00;101859.97;10376749;28;20040;-64
2023/01/05 06:45:43;;;;;;;31.33;8.35;;;;;;;9.82;100.00;101872.47;10374461;28;20033;-64
2023/01/05 06:50:44;;;;;;;33.90;9.80;;;;;;;9.81;100.00;101876.22;10375799;28;20033;-63
2023/01/05 06:55:44;;;;;;;45.35;9.40;;;;;;;9.78;100.00;101880.94;10377507;28;20046;-64
2023/01/05 07:00:44;;;;;;;28.25;9.05;;;;;;;9.76;100.00;101877.56;10375535;28;20037;-64
2023/01/05 07:05:45;;;;;;;26.90;9.10;;;;;;;9.82;100.00;101902.22;10377824;28;20053;-64
2023/01/05 07:10:45;;;;;;;34.92;8.52;;;;;;;9.77;100.00;101894.63;10374446;28;20026;-64
2023/01/05 07:15:46;;;;;;;41.75;11.00;;;;;;;9.58;100.00;101897.66;10375792;28;20030;-63
2023/01/05 07:20:46;;;;;;;26.45;7.88;;;;;;;9.46;100.00;101894.41;10376307;28;20058;-64
2023/01/05 07:25:46;;;;;;;40.03;7.57;;;;;;;9.37;100.00;101901.66;10358576;28;20037;-63
2023/01/05 07:30:51;;;;;;;54.15;8.68;;;;;;;9.28;100.00;101900.81;10374715;28;20394;-64
2023/01/05 07:35:51;;;;;;;38.40;10.32;;;;;;;9.14;100.00;101906.81;10374637;28;20061;-63
2023/01/05 07:40:52;;;;;;;41.92;9.07;;;;;;;9.09;100.00;101903.75;10358580;28;20065;-63
2023/01/05 07:45:59;;;;;;;43.88;10.50;;;;;;;9.11;100.00;101909.00;10375493;28;20038;-63
2023/01/05 07:51:03;;;;;;;39.58;8.93;;;;;;;9.20;100.00;101911.56;10374292;28;20041;-64
2023/01/05 07:56:04;;;;;;;37.42;7.70;;;;;;;9.24;100.00;101925.59;10380497;28;20041;-64
2023/01/05 08:01:06;;;;;;;40.78;9.10;;;;;;;9.24;100.00;101936.41;10391305;28;20526;-64
2023/01/05 08:06:08;;;;;;;26.05;8.13;;;;;;;9.21;100.00;101936.75;10365572;28;20137;-64
2023/01/05 08:11:10;;;;;;;27.85;8.60;;;;;;;9.19;100.00;101944.16;10381530;28;20433;-64
2023/01/05 08:16:10;;;;;;;28.17;8.18;;;;;;;9.39;100.00;101955.56;10381782;28;20037;-64
2023/01/05 08:21:10;;;;;;;26.92;9.95;;;;;;;9.59;100.00;101962.38;10382803;28;20061;-64
2023/01/05 08:26:16;;;;;;;37.97;8.93;;;;;;;9.76;100.00;101964.13;10381567;28;20042;-63
2023/01/05 08:31:16;;;;;;;26.30;8.88;;;;;;;9.89;100.00;101971.75;10381940;28;20116;-63
2023/01/05 08:36:18;;;;;;;42.78;9.05;;;;;;;9.97;100.00;101976.31;10381150;28;20167;-63
2023/01/05 08:41:26;;;;;;;25.45;8.95;;;;;;;10.04;100.00;101976.50;10380455;28;20278;-64
2023/01/05 08:46:29;;;;;;;35.75;7.43;;;;;;;10.12;100.00;101985.47;10382195;28;20034;-64
2023/01/05 08:51:29;;;;;;;26.88;6.85;;;;;;;10.15;100.00;101993.25;10365306;28;20044;-63
2023/01/05 08:56:30;;;;;;;30.05;7.63;;;;;;;10.19;100.00;102001.88;10382460;28;20113;-64
2023/01/05 09:01:30;;;;;;;29.95;9.05;;;;;;;10.30;100.00;101995.31;10385921;28;20417;-63
2023/01/05 09:06:31;;;;;;;32.72;11.43;;;;;;;10.33;100.00;102009.34;10364590;28;20049;-64
2023/01/05 09:11:33;;;;;;;42.13;9.82;;;;;;;10.42;100.00;102007.50;10380511;28;20038;-64
2023/01/05 09:16:34;;;;;;;38.40;10.07;;;;;;;10.57;100.00;102018.50;10379928;28;20037;-63
2023/01/05 09:21:34;;;;;;;38.20;9.30;;;;;;;10.66;100.00;102017.50;10380986;28;20058;-65
2023/01/05 09:26:35;;;;;;;34.35;8.25;;;;;;;10.66;100.00;102018.34;10379954;28;20034;-64
2023/01/05 09:31:35;;;;;;;37.97;8.80;;;;;;;10.69;100.00;102017.16;10379278;28;20038;-62
2023/01/05 09:36:37;;;;;;;27.70;8.18;;;;;;;10.75;100.00;102023.72;10379817;28;20124;-64
2023/01/05 09:41:39;;;;;;;36.75;10.50;;;;;;;10.75;100.00;102032.69;10378995;28;20045;-64
2023/01/05 09:46:41;;;;;;;40.45;9.32;;;;;;;10.90;100.00;102032.88;10379124;28;20037;-64
2023/01/05 09:51:41;;;;;;;33.95;9.55;;;;;;;11.15;100.00;102044.50;10378327;28;20116;-63
2023/01/05 09:56:43;;;;;;;24.33;10.05;;;;;;;11.22;100.00;102050.91;10377063;28;20141;-63
2023/01/05 10:01:44;;;;;;;42.13;7.22;;;;;;;11.20;100.00;102046.69;10360698;28;20040;-63
2023/01/05 10:07:05;;;;;;;33.88;9.57;;;;;;;11.40;100.00;102053.41;10378496;28;20034;-63
2023/01/05 10:17:40;;;;;;;38.20;10.30;;;;;;;12.20;100.00;102063.22;10363137;28;20104;-63
2023/01/05 10:23:02;;;;;;;32.40;10.55;;;;;;;12.06;100.00;102059.41;10358895;28;20085;-63
2023/01/05 10:28:27;;;;;;;33.78;10.30;;;;;;;11.88;100.00;102067.00;10361633;28;20034;-63
2023/01/05 10:33:51;;;;;;;38.92;9.43;;;;;;;11.92;100.00;102065.59;10376795;28;20121;-64
2023/01/05 10:39:05;;;;;;;13.20;7.05;;;;;;;12.16;100.00;102056.47;10375084;28;20049;-63
2023/01/05 10:44:38;;;;;;;25.10;8.77;;;;;;;12.58;100.00;102069.56;10359860;28;20026;-64
2023/01/05 10:49:42;;;;;;;22.77;8.90;;;;;;;13.17;100.00;102066.13;10375369;28;20026;-63
2023/01/05 10:54:55;;;;;;;28.88;9.25;;;;;;;13.45;100.00;102058.19;10376389;28;20084;-63
2023/01/05 10:59:57;;;;;;;31.45;8.43;;;;;;;13.74;100.00;102060.06;10376500;28;20058;-64
2023/01/05 11:05:02;;;;;;;29.88;8.77;;;;;;;13.32;100.00;102063.47;10375675;28;20030;-63
2023/01/05 11:10:03;;;;;;;24.98;8.88;;;;;;;12.44;100.00;102062.19;10359486;28;20390;-64
2023/01/05 11:15:04;;;;;;;28.30;8.77;;;;;;;12.14;100.00;102058.53;10381602;28;20041;-64
2023/01/05 11:20:05;;;;;;;31.25;9.18;;;;;;;11.92;100.00;102046.59;10358827;28;20056;-63
2023/01/05 11:25:25;;;;;;;43.53;11.43;;;;;;;11.81;100.00;102039.69;10373833;28;20042;-63
2023/01/05 11:30:26;;;;;;;27.52;9.20;;;;;;;11.72;100.00;102043.47;10375377;28;20022;-64
2023/01/05 11:35:32;;;;;;;26.65;7.85;;;;;;;11.70;100.00;102040.91;10374483;28;20041;-63
2023/01/05 11:40:33;;;;;;;28.25;7.70;;;;;;;11.70;100.00;102031.91;10372796;28;20033;-63
2023/01/05 11:45:38;;;;;;;20.27;9.50;;;;;;;11.67;100.00;102035.81;10372505;28;20045;-63
2023/01/05 11:50:45;;;;;;;40.55;10.02;;;;;;;11.68;100.00;102034.81;10373762;28;20411;-62
2023/01/05 11:55:45;;;;;;;38.85;10.32;;;;;;;11.68;100.00;102034.81;10356092;28;20026;-65
2023/01/05 12:01:04;;;;;;;37.97;10.98;;;;;;;11.46;100.00;102035.59;10374628;28;20049;-63
2023/01/05 12:06:43;;;;;;;24.50;9.52;;;;;;;11.59;100.00;102034.00;10374659;28;20045;-64
2023/01/05 12:12:09;;;;;;;35.70;9.65;;;;;;;11.92;100.00;102030.31;10357099;28;20057;-64
2023/01/05 12:17:13;;;;;;;35.95;8.27;;;;;;;11.97;100.00;102030.63;10373976;28;20038;-63
2023/01/05 12:22:26;;;;;;;35.75;9.02;;;;;;;11.91;100.00;102026.75;10374207;28;20049;-65
2023/01/05 12:27:38;;;;;;;35.45;10.10;;;;;;;11.88;100.00;102026.28;10374693;28;20080;-64
2023/01/05 12:32:51;;;;;;;26.58;8.68;;;;;;;11.89;100.00;102004.38;10377056;28;20068;-65
2023/01/05 12:37:58;;;;;;;25.70;7.47;;;;;;;11.96;100.00;102010.75;10372069;28;20113;-64
2023/01/05 12:43:08;;;;;;;31.13;9.02;;;;;;;11.97;100.00;102003.50;10356734;28;20048;-64
2023/01/05 12:48:21;;;;;;;29.48;7.07;;;;;;;12.10;100.00;102014.59;10346569;28;20045;-63
2023/01/05 12:54:04;;;;;;;17.83;6.10;;;;;;;12.07;100.00;102004.09;10378944;28;20029;-64
2023/01/05 12:59:18;;;;;;;29.08;7.85;;;;;;;12.05;100.00;102006.97;10336233;28;20529;-63
2023/01/05 13:04:32;;;;;;;43.10;10.05;;;;;;;12.12;100.00;102007.09;10371676;28;20256;-64
2023/01/05 13:09:32;;;;;;;20.10;8.40;;;;;;;12.16;100.00;102003.00;10379156;28;20033;-63
2023/01/05 13:14:34;;;;;;;25.52;8.85;;;;;;;12.27;100.00;102004.44;10378671;28;20470;-64
2023/01/05 13:19:46;;;;;;;33.67;6.55;;;;;;;12.37;100.00;102001.47;10378164;28;20050;-65
2023/01/05 13:25:16;;;;;;;19.30;7.20;;;;;;;12.53;100.00;101998.63;10362548;28;20113;-63
2023/01/05 13:30:28;;;;;;;28.50;8.15;;;;;;;12.28;100.00;102009.72;10372929;28;20048;-64
2023/01/05 13:36:07;;;;;;;21.60;7.55;;;;;;;12.06;100.00;102003.25;10361868;28;20045;-62
2023/01/05 13:41:23;;;;;;;31.85;8.10;;;;;;;11.95;100.00;101994.66;10333454;28;20050;-63
2023/01/05 13:46:54;;;;;;;48.38;8.85;;;;;;;11.70;100.00;102002.91;10369848;28;20046;-64
2023/01/05 13:52:04;;;;;;;25.05;8.82;;;;;;;11.54;100.00;102003.00;10371932;28;20072;-63
2023/01/05 13:57:09;;;;;;;33.55;7.60;;;;;;;11.32;100.00;101996.47;10359296;28;20065;-64
2023/01/05 14:02:25;;;;;;;49.15;11.02;;;;;;;11.23;100.00;101987.56;10377855;28;20104;-63
2023/01/05 14:07:25;;;;;;;23.88;6.20;;;;;;;11.15;100.00;101984.84;10378225;28;20045;-64
2023/01/05 14:12:46;;;;;;;21.42;6.57;;;;;;;11.10;100.00;102007.09;10379337;28;20037;-63
2023/01/05 14:18:03;;;;;;;38.83;7.75;;;;;;;11.06;100.00;102000.28;10377859;28;20030;-63
2023/01/05 14:23:24;;;;;;;38.33;8.55;;;;;;;10.93;100.00;101998.13;10375621;28;20045;-64
2023/01/05 14:28:27;;;;;;;28.02;6.10;;;;;;;10.81;100.00;101994.09;10376240;28;20040;-64
2023/01/05 14:33:28;;;;;;;29.45;7.40;;;;;;;10.64;100.00;101989.72;10377593;28;20132;-64
2023/01/05 14:38:28;;;;;;;24.38;7.47;;;;;;;10.61;100.00;101973.81;10359686;28;20581;-62
2023/01/05 14:43:31;;;;;;;16.42;5.80;;;;;;;10.55;100.00;101978.03;10380763;28;20048;-63
2023/01/05 14:48:37;;;;;;;32.42;6.45;;;;;;;10.44;100.00;101975.69;10363511;28;20034;-63
2023/01/05 14:53:39;;;;;;;22.90;7.35;;;;;;;10.40;100.00;101969.78;10374557;28;20061;-64
2023/01/05 14:58:42;;;;;;;36.63;6.75;;;;;;;10.36;100.00;101968.41;10376697;28;20040;-62
2023/01/05 15:04:04;;;;;;;20.90;6.03;;;;;;;10.31;100.00;101962.69;10377099;28;20038;-63
2023/01/05 15:09:07;;;;;;;21.55;5.68;;;;;;;10.30;100.00;101966.38;10371931;28;20049;-62
2023/01/05 15:14:33;;;;;;;10.95;3.70;;;;;;;10.28;100.00;101965.72;10375844;28;20034;-61
2023/01/05 15:20:16;;;;;;;21.80;5.50;;;;;;;10.16;100.00;101969.75;10375341;28;20045;-62
2023/01/05 15:25:29;;;;;;;18.17;6.40;;;;;;;10.10;100.00;101965.00;10375741;28;20116;-62
2023/01/05 15:31:07;;;;;;;15.50;5.72;;;;;;;10.00;100.00;101960.59;10374999;28;20057;-62
2023/01/05 15:36:15;;;;;;;31.27;5.97;;;;;;;9.94;100.00;101953.16;10389591;28;20144;-63
2023/01/05 15:41:18;;;;;;;19.50;5.68;;;;;;;10.04;100.00;101955.69;10373218;28;20026;-63
2023/01/05 15:46:20;;;;;;;14.85;5.78;;;;;;;10.03;100.00;101951.28;10357235;28;20038;-62
2023/01/05 15:51:25;;;;;;;15.52;5.47;;;;;;;10.02;100.00;101941.50;10374418;28;20072;-63
2023/01/05 15:56:35;;;;;;;13.23;5.93;;;;;;;10.11;100.00;101931.50;10373631;28;20041;-63
2023/01/05 16:01:36;;;;;;;19.38;7.22;;;;;;;10.20;100.00;101928.63;10374793;28;20110;-63
2023/01/05 16:06:38;;;;;;;23.45;7.47;;;;;;;10.25;100.00;101911.88;10372482;28;20042;-66
2023/01/05 16:11:40;;;;;;;16.88;9.40;;;;;;;10.33;100.00;101909.19;10371691;28;20041;-64
2023/01/05 16:16:52;;;;;;;12.98;8.82;;;;;;;10.37;100.00;101912.38;10373379;28;20061;-63
2023/01/05 16:22:31;;;;;;;17.25;11.13;;;;;;;10.39;100.00;101908.50;10362879;28;20128;-63
2023/01/05 16:27:34;;;;;;;21.73;9.73;;;;;;;10.42;100.00;101905.44;10381054;28;20458;-64
2023/01/05 16:32:36;;;;;;;16.85;11.60;;;;;;;10.39;100.00;101904.94;10363937;28;20026;-64
2023/01/05 16:37:36;;;;;;;12.43;10.00;;;;;;;10.37;100.00;101902.44;10381472;28;20500;-65
2023/01/05 16:42:49;;;;;;;14.93;11.15;;;;;;;10.31;100.00;101896.84;10382021;28;20091;-66
2023/01/05 16:47:51;;;;;;;16.17;10.57;;;;;;;10.32;100.00;101903.94;10379978;28;20053;-65
2023/01/05 16:53:08;;;;;;;16.83;11.75;;;;;;;10.36;100.00;101906.13;10381271;28;20038;-65
2023/01/05 16:58:30;;;;;;;14.55;9.68;;;;;;;10.29;100.00;101894.31;10382114;28;20041;-65
2023/01/05 17:03:31;;;;;;;25.23;11.93;;;;;;;10.30;100.00;101895.97;10384174;28;20054;-65
2023/01/05 17:08:34;;;;;;;18.80;11.68;;;;;;;10.33;100.00;101901.06;10379613;28;20124;-66
2023/01/05 17:13:46;;;;;;;25.60;10.98;;;;;;;10.34;100.00;101896.47;10363761;28;20029;-65
2023/01/05 17:18:46;;;;;;;20.55;10.60;;;;;;;10.32;100.00;101893.97;10379340;28;20469;-65
2023/01/05 17:23:51;;;;;;;15.57;9.50;;;;;;;10.32;100.00;101887.72;10380492;28;20117;-66
2023/01/05 17:28:54;;;;;;;13.15;10.15;;;;;;;10.31;100.00;101895.00;10377940;28;20419;-64
2023/01/05 17:33:54;;;;;;;16.52;9.27;;;;;;;10.35;100.00;101892.78;10361303;28;20139;-65
2023/01/05 17:38:55;;;;;;;20.00;9.57;;;;;;;10.36;100.00;101880.94;10379266;28;20092;-66
2023/01/05 17:43:55;;;;;;;25.02;10.05;;;;;;;10.35;100.00;101880.09;10379613;28;20041;-65
2023/01/05 17:48:57;;;;;;;17.70;8.50;;;;;;;10.34;100.00;101881.13;10377163;28;20053;-66
2023/01/05 17:53:58;;;;;;;13.25;8.27;;;;;;;10.36;100.00;101861.97;10361876;28;20117;-65
2023/01/05 17:58:58;;;;;;;18.55;7.88;;;;;;;10.34;100.00;101862.16;10360700;28;20116;-66
2023/01/05 18:03:59;;;;;;;13.80;7.43;;;;;;;10.39;100.00;101867.03;10378100;28;20053;-65
2023/01/05 18:08:59;;;;;;;13.77;6.57;;;;;;;10.39;100.00;101865.19;10361542;28;20125;-65
2023/01/05 18:13:59;;;;;;;14.48;6.15;;;;;;;10.34;100.00;101861.28;10381829;28;20025;-65
2023/01/05 18:19:00;;;;;;;25.52;8.27;;;;;;;10.31;100.00;101850.84;10386122;28;20475;-65
2023/01/05 18:24:00;;;;;;;15.18;5.57;;;;;;;10.33;100.00;101846.06;10378808;28;20038;-66
2023/01/05 18:29:01;;;;;;;8.23;5.28;;;;;;;10.36;100.00;101843.03;10376732;28;20033;-66
2023/01/05 18:34:01;;;;;;;11.48;5.75;;;;;;;10.35;100.00;101839.47;10377175;28;20041;-66
2023/01/05 18:39:01;;;;;;;12.55;7.30;;;;;;;10.35;100.00;101836.75;10377536;28;20192;-66
2023/01/05 18:44:02;;;;;;;29.65;7.22;;;;;;;10.39;100.00;101834.56;10375815;28;20041;-66
2023/01/05 18:49:02;;;;;;;9.77;5.20;;;;;;;10.37;100.00;101840.16;10376470;28;20030;-65
2023/01/05 18:54:03;;;;;;;14.38;5.80;;;;;;;10.35;100.00;101842.19;10377405;28;20509;-65
2023/01/05 18:59:03;;;;;;;16.40;6.55;;;;;;;10.37;100.00;101840.16;10376864;28;20034;-65
2023/01/05 19:04:04;;;;;;;17.02;5.03;;;;;;;10.33;100.00;101844.19;10376661;28;20409;-65
2023/01/05 19:09:05;;;;;;;21.00;6.32;;;;;;;10.32;100.00;101841.69;10377513;28;20390;-66
2023/01/05 19:14:06;;;;;;;19.48;6.53;;;;;;;10.26;100.00;101835.09;10375918;28;20026;-65
2023/01/05 19:19:09;;;;;;;15.38;6.45;;;;;;;10.28;100.00;101827.66;10375549;28;20053;-65
2023/01/05 19:24:18;;;;;;;19.33;6.07;;;;;;;10.28;100.00;101822.25;10376293;28;20101;-65
2023/01/05 19:29:18;;;;;;;38.38;8.23;;;;;;;10.30;100.00;101825.59;10379903;28;20065;-64
2023/01/05 19:34:19;;;;;;;28.52;8.85;;;;;;;10.29;100.00;101818.50;10364504;28;20030;-66
2023/01/05 19:39:20;;;;;;;31.38;7.68;;;;;;;10.37;100.00;101821.19;10378223;28;20033;-66
2023/01/05 19:44:21;;;;;;;19.73;9.00;;;;;;;10.43;100.00;101806.97;10375762;28;20370;-66
2023/01/05 19:49:23;;;;;;;21.33;6.45;;;;;;;10.49;100.00;101808.13;10375530;28;20033;-66
2023/01/05 19:54:25;;;;;;;25.33;7.15;;;;;;;10.54;100.00;101805.72;10373956;28;20033;-65
2023/01/05 19:59:31;;;;;;;33.58;7.70;;;;;;;10.58;100.00;101811.66;10372645;28;20038;-68
2023/01/05 20:04:32;;;;;;;26.27;5.57;;;;;;;10.61;100.00;101822.13;10357048;28;20465;-65
2023/01/05 20:09:32;;;;;;;14.75;6.10;;;;;;;10.60;100.00;101806.91;10373406;28;20049;-66
2023/01/05 20:14:33;;;;;;;20.23;5.63;;;;;;;10.63;100.00;101804.69;10373283;28;20124;-66
2023/01/05 20:19:34;;;;;;;16.25;4.68;;;;;;;10.58;100.00;101798.94;10374068;28;20062;-65
2023/01/05 20:24:37;;;;;;;19.58;8.43;;;;;;;10.62;100.00;101788.59;10356571;28;20061;-66
2023/01/05 20:29:39;;;;;;;14.68;5.15;;;;;;;10.59;100.00;101792.53;10373914;28;20038;-65
2023/01/05 20:34:40;;;;;;;25.45;4.88;;;;;;;10.60;100.00;101790.66;10374087;28;20038;-65
2023/01/05 20:39:40;;;;;;;16.88;4.38;;;;;;;10.52;100.00;101779.84;10372708;28;20046;-66
2023/01/05 20:44:44;;;;;;;33.75;7.18;;;;;;;10.51;100.00;101781.72;10374531;28;20038;-66
2023/01/05 20:49:45;;;;;;;23.55;7.03;;;;;;;10.53;100.00;101786.94;10373626;28;20442;-65
2023/01/05 20:54:45;;;;;;;8.23;3.47;;;;;;;10.50;100.00;101799.00;10373662;28;20121;-65
2023/01/05 20:59:46;;;;;;;17.77;5.55;;;;;;;10.53;100.00;101786.94;10373670;28;20030;-66
2023/01/05 21:04:46;;;;;;;20.80;4.78;;;;;;;10.54;100.00;101788.66;10374929;28;20088;-66
2023/01/05 21:09:48;;;;;;;18.42;4.90;;;;;;;10.50;100.00;101788.16;10381074;28;20034;-65
2023/01/05 21:14:49;;;;;;;10.82;3.78;;;;;;;10.47;100.00;101773.09;10380268;28;20040;-66
2023/01/05 21:19:49;;;;;;;9.00;3.92;;;;;;;10.47;100.00;101778.50;10380114;28;20085;-66
2023/01/05 21:24:49;;;;;;;6.68;4.10;;;;;;;10.51;100.00;101784.41;10379034;28;20058;-66
2023/01/05 21:29:50;;;;;;;13.57;5.32;;;;;;;10.56;100.00;101787.47;10382015;28;20152;-66
2023/01/05 21:34:50;;;;;;;7.35;4.40;;;;;;;10.58;100.00;101787.25;10386222;28;20048;-67
2023/01/05 21:39:50;;;;;;;17.55;4.22;;;;;;;10.57;100.00;101772.03;10379680;28;20536;-65
2023/01/05 21:44:52;;;;;;;10.38;3.67;;;;;;;10.56;100.00;101776.63;10379566;28;20041;-66
2023/01/05 21:49:52;;;;;;;16.20;4.28;;;;;;;10.57;100.00;101774.75;10379396;28;20092;-66
2023/01/05 22:00:32;;;;;;;9.30;4.03;;;;;;;10.58;100.00;101773.72;10322269;28;20218;-66
2023/01/05 22:05:33;;;;;;;8.40;3.08;;;;;;;10.47;100.00;101759.56;10358486;28;20129;-65
2023/01/05 22:10:33;;;;;;;10.38;3.90;;;;;;;10.43;100.00;101760.94;10378954;28;20112;-66
2023/01/05 22:15:34;;;;;;;15.63;3.83;;;;;;;10.43;100.00;101758.22;10378675;28;20052;-66
2023/01/05 22:20:34;;;;;;;12.48;3.83;;;;;;;10.45;100.00;101756.16;10377296;28;20415;-65
2023/01/05 22:25:35;;;;;;;12.50;4.05;;;;;;;10.55;100.00;101764.09;10378266;28;20042;-65
2023/01/05 22:30:35;;;;;;;6.97;3.03;;;;;;;10.53;100.00;101760.72;10378755;28;20358;-65
2023/01/05 22:35:38;;;;;;;10.45;4.50;;;;;;;10.52;100.00;101755.47;10377329;28;20034;-65
2023/01/05 22:40:39;;;;;;;6.30;3.75;;;;;;;10.44;100.00;101740.94;10378147;28;20529;-65
2023/01/05 22:45:39;;;;;;;16.05;4.20;;;;;;;10.47;100.00;101761.44;10376851;28;20065;-65
2023/01/05 22:50:39;;;;;;;7.40;3.75;;;;;;;10.54;100.00;101765.13;10376551;28;20060;-65
2023/01/05 22:55:41;;;;;;;18.70;4.53;;;;;;;10.48;100.00;101757.69;10375360;28;20041;-65
2023/01/05 23:00:42;;;;;;;8.13;4.05;;;;;;;10.47;100.00;101751.44;10358388;28;20104;-66
2023/01/05 23:05:42;;;;;;;7.32;3.85;;;;;;;10.53;100.00;101747.19;10375006;28;20061;-65
2023/01/05 23:10:42;;;;;;;4.78;2.95;;;;;;;10.47;100.00;101735.19;10376008;28;20034;-65
2023/01/05 23:15:43;;;;;;;13.15;4.13;;;;;;;10.49;100.00;101724.16;10376939;28;20049;-65
2023/01/05 23:20:43;;;;;;;13.05;2.53;;;;;;;10.46;100.00;101717.25;10375463;28;20108;-66
2023/01/05 23:25:45;;;;;;;6.50;1.67;;;;;;;10.44;100.00;101719.28;10374937;28;20103;-66
2023/01/05 23:30:46;;;;;;;9.18;2.33;;;;;;;10.43;100.00;101733.88;10375833;28;20482;-65
2023/01/05 23:35:49;;;;;;;5.70;1.30;;;;;;;10.32;100.00;101720.69;10374220;28;20030;-65